| time (UTC) | temp F | wind direction | speed MPH | gust MPH | rain 1hr in | rain 24hr in | rain mn in | humidity % | barometer mb |
| 20260503054526 | 70 | 108 | 0.0 | 0.0 | 0.00 | 1.51 | 0.00 | 96 | 1012.8 |
| 20260503053020 | 71 | 108 | 0.0 | 0.0 | 0.00 | 1.51 | 0.00 | 96 | 1012.7 |
| 20260503051516 | 71 | 108 | 0.0 | 0.0 | 0.00 | 1.51 | 0.00 | 96 | 1012.7 |
| 20260503050014 | 71 | 108 | 0.0 | 0.0 | 0.00 | 1.51 | 0.00 | 96 | 1012.8 |
| 20260503044511 | 72 | 108 | 0.0 | 1.0 | 0.00 | 1.51 | 0.00 | 96 | 1012.9 |
| 20260503043009 | 73 | 128 | 0.0 | 0.0 | 0.00 | 1.51 | 0.00 | 96 | 1013.0 |
| 20260503041509 | 74 | 118 | 0.0 | 0.0 | 0.00 | 1.51 | 0.00 | 96 | 1013.1 |
| 20260503040002 | 75 | 118 | 0.0 | 0.0 | 0.00 | 1.51 | 1.51 | 96 | 1013.2 |
| 20260503034505 | 75 | 129 | 0.0 | 0.0 | 0.00 | 1.51 | 1.51 | 96 | 1013.3 |
| 20260503033103 | 75 | 131 | 0.0 | 0.0 | 0.00 | 1.51 | 1.51 | 96 | 1013.3 |
| 20260503031559 | 74 | 130 | 0.0 | 1.0 | 0.00 | 1.51 | 1.51 | 96 | 1013.2 |
| 20260503030059 | 74 | 127 | 0.0 | 1.0 | 0.00 | 1.51 | 1.51 | 96 | 1013.3 |
| 20260503024605 | 73 | 91 | 0.0 | 1.0 | 0.00 | 1.51 | 1.51 | 96 | 1013.2 |
| 20260503023056 | 74 | 122 | 0.0 | 1.0 | 0.00 | 1.51 | 1.51 | 96 | 1013.0 |
| 20260503021555 | 74 | 124 | 0.0 | 0.0 | 0.00 | 1.51 | 1.51 | 96 | 1012.8 |
| 20260503020055 | 75 | 124 | 0.0 | 0.0 | 0.00 | 1.51 | 1.51 | 96 | 1012.8 |
| 20260503014615 | 75 | 124 | 0.0 | 0.0 | 0.00 | 1.51 | 1.51 | 96 | 1012.6 |
| 20260503013056 | 75 | 124 | 0.0 | 1.0 | 0.00 | 1.51 | 1.51 | 96 | 1012.4 |
| 20260503011553 | 75 | 140 | 0.0 | 1.0 | 0.00 | 1.51 | 1.51 | 96 | 1012.2 |
| 20260503010053 | 75 | 196 | 0.0 | 0.0 | 0.00 | 1.51 | 1.51 | 95 | 1012.0 |
| 20260503004552 | 76 | 207 | 0.0 | 0.0 | 0.00 | 1.51 | 1.51 | 95 | 1011.8 |
| 20260503003051 | 76 | 186 | 0.0 | 1.0 | 0.00 | 1.51 | 1.51 | 95 | 1011.7 |
| 20260503001551 | 76 | 165 | 0.0 | 0.0 | 0.00 | 1.51 | 1.51 | 95 | 1011.5 |
| 20260503000053 | 75 | 136 | 0.0 | 1.0 | 0.00 | 1.54 | 1.51 | 95 | 1011.3 |
| 20260502234550 | 75 | 149 | 0.0 | 3.0 | 0.00 | 1.54 | 1.51 | 95 | 1011.1 |
| 20260502233049 | 75 | 187 | 0.0 | 3.0 | 0.07 | 1.54 | 1.51 | 96 | 1011.1 |
| 20260502231601 | 75 | 155 | 0.0 | 3.0 | 0.39 | 1.54 | 1.51 | 96 | 1010.8 |
| 20260502230050 | 75 | 191 | 1.0 | 4.0 | 1.14 | 1.54 | 1.51 | 96 | 1010.6 |
| 20260502224548 | 75 | 291 | 0.0 | 6.0 | 1.33 | 1.53 | 1.50 | 96 | 1010.6 |
| 20260502223048 | 75 | 292 | 0.0 | 3.0 | 1.36 | 1.47 | 1.44 | 95 | 1010.6 |
| 20260502221549 | 76 | 288 | 1.0 | 5.0 | 1.06 | 1.12 | 1.10 | 95 | 1010.7 |
| 20260502220050 | 76 | 251 | 2.0 | 8.0 | 0.35 | 0.38 | 0.35 | 94 | 1010.5 |
| 20260502214545 | 77 | 276 | 2.0 | 10.0 | 0.16 | 0.19 | 0.16 | 92 | 1010.2 |
| 20260502213045 | 79 | 252 | 3.0 | 7.0 | 0.08 | 0.11 | 0.08 | 93 | 1010.0 |
| 20260502211548 | 80 | 263 | 0.0 | 5.0 | 0.04 | 0.07 | 0.04 | 91 | 1010.0 |
| 20260502210050 | 82 | 288 | 1.0 | 9.0 | 0.00 | 0.03 | 0.00 | 87 | 1009.8 |
| 20260502204543 | 82 | 314 | 2.0 | 8.0 | 0.00 | 0.03 | 0.00 | 86 | 1009.7 |
| 20260502203043 | 83 | 326 | 5.0 | 9.0 | 0.00 | 0.03 | 0.00 | 84 | 1009.7 |
| 20260502201543 | 83 | 18 | 2.0 | 11.0 | 0.00 | 0.03 | 0.00 | 84 | 1009.8 |
| 20260502200043 | 84 | 335 | 2.0 | 10.0 | 0.00 | 0.03 | 0.00 | 83 | 1009.8 |
| 20260502194541 | 85 | 54 | 1.0 | 9.0 | 0.00 | 0.03 | 0.00 | 80 | 1009.9 |
| 20260502193041 | 86 | 277 | 2.0 | 7.0 | 0.00 | 0.03 | 0.00 | 79 | 1010.0 |
| 20260502191541 | 86 | 299 | 2.0 | 9.0 | 0.00 | 0.03 | 0.00 | 76 | 1009.9 |
| 20260502190040 | 86 | 309 | 2.0 | 6.0 | 0.00 | 0.03 | 0.00 | 75 | 1009.9 |
| 20260502184548 | 87 | 260 | 3.0 | 10.0 | 0.00 | 0.03 | 0.00 | 73 | 1010.1 |
| 20260502183038 | 88 | 323 | 2.0 | 6.0 | 0.00 | 0.03 | 0.00 | 71 | 1010.2 |
| 20260502181537 | 88 | 287 | 1.0 | 7.0 | 0.00 | 0.03 | 0.00 | 69 | 1010.4 |
| 20260502163032 | 87 | 299 | 1.0 | 7.0 | 0.00 | 0.03 | 0.00 | 70 | 1011.4 |
| 20260502161531 | 89 | 300 | 1.0 | 6.0 | 0.00 | 0.03 | 0.00 | 66 | 1011.6 |
| 20260502151526 | 87 | 255 | 2.0 | 6.0 | 0.00 | 0.03 | 0.00 | 64 | 1012.4 |
| 20260502123105 | 80 | 92 | 3.0 | 6.0 | 0.00 | 0.03 | 0.00 | 80 | 1012.2 |
| 20260502121604 | 80 | 89 | 2.0 | 5.0 | 0.00 | 0.03 | 0.00 | 82 | 1012.0 |
| 20260502114547 | 77 | 94 | 2.0 | 4.0 | 0.00 | 0.03 | 0.00 | 86 | 1011.8 |
| 20260502113045 | 76 | 100 | 2.0 | 3.0 | 0.00 | 0.03 | 0.00 | 89 | 1011.6 |
| 20260502111548 | 75 | 86 | 1.0 | 3.0 | 0.00 | 0.03 | 0.00 | 91 | 1011.5 |
| 20260502110042 | 74 | 96 | 0.0 | 2.0 | 0.00 | 0.03 | 0.00 | 94 | 1011.3 |
| 20260502104543 | 73 | 101 | 1.0 | 3.0 | 0.00 | 0.03 | 0.00 | 94 | 1011.2 |
| 20260502103139 | 72 | 98 | 0.0 | 0.0 | 0.00 | 0.03 | 0.00 | 95 | 1011.0 |
| 20260502101557 | 71 | 120 | 0.0 | 0.0 | 0.00 | 0.03 | 0.00 | 95 | 1010.8 |
| 20260502071523 | 73 | 108 | 0.0 | 1.0 | 0.00 | 0.03 | 0.00 | 96 | 1009.6 |
| 20260502070024 | 73 | 108 | 0.0 | 0.0 | 0.00 | 0.03 | 0.00 | 96 | 1009.6 |
| 20260502064528 | 73 | 108 | 0.0 | 0.0 | 0.00 | 0.03 | 0.00 | 95 | 1009.7 |